Terminal Aerodrome Forecast
Issued by NWS

Home | Current Version | Previous Version | Text Only | Print | Product List | Glossary On
Versions: 1 2 3 4 5 6 7 8 9 10 11 12 13 14 15 16 17 18 19 20 21 22 23 24 25 26 27 28 29 30 31 32 33 34 35
312
FTUS41 KBOX 161011 AAA
TAFHYA
TAF AMD
KHYA 161011Z 1610/1706 28008KT P6SM BKN080
     FM162000 28014G25KT P6SM BKN080
     FM162300 28013KT P6SM SCT080
     FM170200 31009KT P6SM SKC=

USA.gov is the U.S. government's official web portal to all federal, state and local government web resources and services.